Time;durP1;ratioP1;P1;durP2;ratioP2;P2;SDS_P1;SDS_P2;PMS_P1;PMS_P2;Temp;Humidity;BMP_temperature;BMP_pressure;BME280_temperature;BME280_humidity;BME280_pressure;Samples;Min_cycle;Max_cycle;Signal;HPM_P1;HPM_P2
2022/01/14 00:01:13;;;;;;;42.87;18.93;;;;;;;-5.85;77.80;96973.02;1795585;80;21592;-67
2022/01/14 00:03:40;;;;;;;40.70;17.93;;;;;;;-5.81;77.85;96963.85;1795693;80;20986;-67
2022/01/14 00:06:07;;;;;;;45.47;19.77;;;;;;;-5.76;77.64;96961.19;1795247;80;21102;-67
2022/01/14 00:08:33;;;;;;;43.93;18.67;;;;;;;-5.76;77.47;96948.34;1795599;80;21014;-67
2022/01/14 00:11:01;;;;;;;44.67;18.70;;;;;;;-5.71;77.87;96951.69;1795652;80;20998;-68
2022/01/14 00:13:45;;;;;;;44.67;19.60;;;;;;;-5.68;77.74;96953.17;1795455;80;21081;-67
2022/01/14 00:16:05;;;;;;;40.83;18.40;;;;;;;-5.59;77.74;96958.04;1793667;80;21469;-67
2022/01/14 00:18:32;;;;;;;40.57;16.77;;;;;;;-5.62;77.08;96958.22;1795252;80;21027;-67
2022/01/14 00:21:01;;;;;;;43.27;18.20;;;;;;;-5.67;76.96;96955.34;1795427;80;21087;-67
2022/01/14 00:23:34;;;;;;;43.57;19.20;;;;;;;-5.77;76.97;96947.45;1795626;80;21002;-67
2022/01/14 00:34:06;;;;;;;43.13;20.20;;;;;;;-5.39;77.64;96929.75;1795434;80;21046;-67
2022/01/14 00:36:33;;;;;;;47.20;21.90;;;;;;;-5.40;77.24;96924.49;1795601;80;21070;-67
2022/01/14 00:38:59;;;;;;;46.67;21.70;;;;;;;-5.35;77.55;96917.95;1795394;80;21015;-67
2022/01/14 00:41:28;;;;;;;47.23;21.20;;;;;;;-5.30;77.32;96903.30;1795209;80;21090;-67
2022/01/14 00:44:01;;;;;;;46.53;21.23;;;;;;;-5.23;77.34;96906.75;1795431;80;20971;-67
2022/01/14 00:46:24;;;;;;;58.77;23.70;;;;;;;-5.26;77.32;96912.12;1794145;80;21113;-67
2022/01/14 00:48:53;;;;;;;51.83;24.67;;;;;;;-5.25;77.55;96905.77;1795442;80;21544;-67
2022/01/14 00:51:23;;;;;;;50.10;23.50;;;;;;;-5.07;77.99;96899.58;1795132;80;21038;-67
2022/01/14 00:53:56;;;;;;;53.53;23.43;;;;;;;-4.97;77.22;96896.30;1795065;80;20983;-67
2022/01/14 00:56:31;;;;;;;49.45;21.77;;;;;;;-5.02;76.50;96900.76;1795575;80;21050;-67
2022/01/14 00:59:14;;;;;;;49.13;21.37;;;;;;;-4.96;76.84;96898.06;1794554;80;21015;-67
2022/01/14 01:01:51;;;;;;;50.20;21.93;;;;;;;-4.78;77.23;96901.80;1795281;80;20970;-67
2022/01/14 01:04:33;;;;;;;48.63;21.53;;;;;;;-4.89;75.87;96898.94;1795514;80;20987;-67
2022/01/14 01:07:02;;;;;;;42.23;19.27;;;;;;;-4.87;76.42;96890.52;1795181;80;21568;-67
2022/01/14 01:09:30;;;;;;;49.67;24.00;;;;;;;-4.94;75.78;96881.04;1795544;80;21010;-67
2022/01/14 01:14:47;;;;;;;51.27;25.27;;;;;;;-5.02;76.13;96872.45;1795456;80;20975;-67
2022/01/14 01:17:08;;;;;;;59.73;25.70;;;;;;;-5.06;76.40;96867.05;1793317;80;21006;-67
2022/01/14 01:19:35;;;;;;;52.73;24.03;;;;;;;-5.12;76.79;96857.64;1795200;80;21057;-67
2022/01/14 01:22:02;;;;;;;59.57;24.70;;;;;;;-5.15;77.29;96860.91;1795216;80;21045;-67
2022/01/14 01:24:31;;;;;;;53.93;24.90;;;;;;;-5.01;77.79;96852.77;1795099;80;21002;-67
2022/01/14 01:27:02;;;;;;;54.40;25.33;;;;;;;-4.90;77.42;96842.72;1795394;80;21041;-67
2022/01/14 01:31:53;;;;;;;51.80;25.10;;;;;;;-4.85;76.77;96840.42;1795178;80;21023;-67
2022/01/14 01:34:23;;;;;;;51.63;23.70;;;;;;;-4.89;76.51;96836.78;1795242;80;21555;-67
2022/01/14 01:36:56;;;;;;;53.67;24.77;;;;;;;-4.98;76.98;96825.92;1795331;80;21007;-67
2022/01/14 01:39:30;;;;;;;48.35;23.27;;;;;;;-4.97;77.59;96822.95;1795713;80;21062;-67
2022/01/14 01:42:01;;;;;;;50.73;23.10;;;;;;;-4.92;77.65;96818.56;1795371;80;21058;-67
2022/01/14 01:44:28;;;;;;;51.40;23.33;;;;;;;-4.82;77.51;96816.14;1795498;80;21048;-67
2022/01/14 01:46:57;;;;;;;42.47;20.07;;;;;;;-4.76;77.25;96816.90;1795264;80;20990;-67
2022/01/14 01:49:31;;;;;;;49.70;21.87;;;;;;;-4.64;77.44;96808.61;1794732;80;21002;-67
2022/01/14 01:51:59;;;;;;;50.93;23.03;;;;;;;-4.56;77.31;96804.83;1795655;80;21572;-67
2022/01/14 01:54:28;;;;;;;52.43;23.10;;;;;;;-4.44;77.27;96805.52;1795501;80;21054;-67
2022/01/14 01:56:56;;;;;;;47.53;20.57;;;;;;;-4.30;77.51;96799.89;1795376;80;21552;-67
2022/01/14 01:59:28;;;;;;;46.40;21.80;;;;;;;-4.25;76.35;96798.88;1795508;80;21014;-67
2022/01/14 02:01:58;;;;;;;48.67;22.33;;;;;;;-4.22;76.64;96780.59;1795467;80;20966;-67
2022/01/14 02:04:25;;;;;;;47.90;22.27;;;;;;;-4.23;76.21;96777.55;1794974;80;21074;-67
2022/01/14 02:06:54;;;;;;;49.00;23.40;;;;;;;-4.19;76.54;96777.30;1795563;80;20979;-67
2022/01/14 02:09:23;;;;;;;49.47;22.50;;;;;;;-4.22;75.98;96768.12;1795524;80;21098;-67
2022/01/14 02:11:50;;;;;;;48.33;21.77;;;;;;;-4.29;76.00;96769.44;1795197;80;20990;-67
2022/01/14 02:14:51;;;;;;;46.00;21.90;;;;;;;-4.25;76.48;96755.06;1795609;80;21087;-67
2022/01/14 02:19:30;;;;;;;46.63;21.23;;;;;;;-4.30;76.09;96753.51;1795492;80;21034;-67
2022/01/14 02:22:12;;;;;;;44.70;20.67;;;;;;;-4.23;76.40;96754.34;1795205;80;20983;-67
2022/01/14 02:27:12;;;;;;;44.40;20.83;;;;;;;-4.33;76.19;96740.83;1795451;80;21034;-67
2022/01/14 02:29:40;;;;;;;46.57;21.53;;;;;;;-4.42;76.27;96742.50;1795596;80;21106;-67
2022/01/14 02:32:08;;;;;;;47.10;20.73;;;;;;;-4.45;76.47;96738.06;1795016;80;21011;-67
2022/01/14 02:34:38;;;;;;;43.37;19.90;;;;;;;-4.46;76.33;96731.52;1795256;80;20975;-67
2022/01/14 02:37:06;;;;;;;41.87;19.37;;;;;;;-4.48;76.37;96734.03;1795437;80;20946;-67
2022/01/14 02:39:33;;;;;;;44.83;20.40;;;;;;;-4.58;76.02;96727.46;1795273;80;21010;-67
2022/01/14 02:42:00;;;;;;;45.83;21.77;;;;;;;-4.70;75.40;96722.89;1795546;80;21022;-67
2022/01/14 02:44:29;;;;;;;46.33;20.93;;;;;;;-4.83;75.96;96729.02;1795698;80;21007;-67
2022/01/14 02:46:58;;;;;;;41.17;19.57;;;;;;;-4.92;75.82;96735.30;1795240;80;21087;-67
2022/01/14 02:49:29;;;;;;;40.43;21.07;;;;;;;-5.12;75.23;96741.84;1795267;80;21045;-67
2022/01/14 02:51:58;;;;;;;43.73;18.90;;;;;;;-5.32;75.65;96752.22;1795233;80;21018;-67
2022/01/14 02:54:41;;;;;;;40.20;18.83;;;;;;;-5.37;76.12;96739.48;1795219;80;21571;-67
2022/01/14 02:57:03;;;;;;;39.47;18.23;;;;;;;-5.50;76.40;96735.28;1794053;80;20986;-67
2022/01/14 02:59:32;;;;;;;41.27;16.83;;;;;;;-5.51;76.50;96736.09;1795243;80;21010;-67
2022/01/14 03:02:02;;;;;;;38.87;15.67;;;;;;;-5.62;76.28;96744.81;1795341;80;21018;-67
2022/01/14 03:04:31;;;;;;;33.23;15.73;;;;;;;-5.75;76.54;96736.34;1795268;80;20986;-67
2022/01/14 03:06:57;;;;;;;33.67;15.50;;;;;;;-5.79;77.40;96734.80;1795251;80;21041;-67
2022/01/14 03:09:26;;;;;;;35.70;15.57;;;;;;;-5.89;77.38;96732.92;1795579;80;21018;-67
2022/01/14 03:12:02;;;;;;;37.87;15.83;;;;;;;-6.01;76.79;96733.88;1795692;80;20999;-67
2022/01/14 03:14:28;;;;;;;39.27;16.80;;;;;;;-6.12;77.12;96730.64;1795426;80;20994;-67
2022/01/14 03:16:59;;;;;;;32.43;14.83;;;;;;;-6.26;77.04;96724.61;1795684;80;21045;-67
2022/01/14 03:19:28;;;;;;;33.87;14.90;;;;;;;-6.38;77.30;96717.00;1795289;80;21461;-67
2022/01/14 03:22:19;;;;;;;38.53;16.10;;;;;;;-6.45;77.93;96726.42;1794969;80;21564;-67
2022/01/14 03:27:05;;;;;;;27.93;14.37;;;;;;;-6.35;78.02;96719.80;1794967;80;21002;-67
2022/01/14 03:29:33;;;;;;;29.33;13.03;;;;;;;-6.46;78.50;96714.34;1795480;80;21484;-67
2022/01/14 03:32:03;;;;;;;34.40;15.90;;;;;;;-6.46;78.58;96719.48;1795292;80;21050;-67
2022/01/14 03:34:33;;;;;;;38.80;16.07;;;;;;;-6.47;79.03;96720.69;1795018;80;20991;-67
2022/01/14 03:37:00;;;;;;;40.67;16.50;;;;;;;-6.39;79.72;96733.62;1795562;80;21492;-67
2022/01/14 03:39:27;;;;;;;32.47;15.13;;;;;;;-6.27;79.65;96745.96;1795872;80;21018;-67
2022/01/14 03:41:53;;;;;;;38.80;16.00;;;;;;;-6.18;79.58;96743.95;1795252;80;21087;-67
2022/01/14 03:44:20;;;;;;;35.07;15.33;;;;;;;-5.97;79.73;96753.45;1795750;80;20999;-67
2022/01/14 03:46:47;;;;;;;34.10;16.57;;;;;;;-5.88;78.81;96753.97;1795362;80;21002;-67
2022/01/14 03:49:14;;;;;;;36.33;15.90;;;;;;;-5.81;78.36;96763.36;1795242;80;21046;-67
2022/01/14 03:51:42;;;;;;;32.10;14.40;;;;;;;-5.82;78.04;96769.28;1795205;80;21103;-67
2022/01/14 03:54:10;;;;;;;32.40;14.40;;;;;;;-5.87;78.31;96768.61;1795685;80;21042;-67
2022/01/14 03:56:38;;;;;;;36.30;16.03;;;;;;;-5.86;78.36;96770.78;1795150;80;20983;-67
2022/01/14 03:59:05;;;;;;;35.63;16.83;;;;;;;-5.88;77.99;96766.81;1795491;80;20979;-67
2022/01/14 04:01:32;;;;;;;43.37;20.73;;;;;;;-5.81;78.61;96764.65;1795264;80;21067;-67
2022/01/14 04:04:00;;;;;;;47.83;21.80;;;;;;;-5.70;78.70;96762.34;1795310;80;20994;-67
2022/01/14 04:06:28;;;;;;;46.33;20.90;;;;;;;-5.63;78.43;96763.62;1795156;80;21065;-67
2022/01/14 04:08:56;;;;;;;36.70;16.20;;;;;;;-5.59;78.21;96763.91;1795519;80;21488;-67
2022/01/14 04:11:26;;;;;;;38.37;17.33;;;;;;;-5.52;77.98;96766.44;1794459;80;21110;-67
2022/01/14 04:13:56;;;;;;;41.90;18.40;;;;;;;-5.39;78.14;96770.64;1795524;80;21117;-67
2022/01/14 04:16:24;;;;;;;44.70;18.53;;;;;;;-5.31;77.67;96766.88;1795595;80;21042;-67
2022/01/14 04:18:52;;;;;;;44.20;18.50;;;;;;;-5.20;77.46;96771.38;1795527;80;20990;-67
2022/01/14 04:21:21;;;;;;;40.40;17.90;;;;;;;-5.19;76.99;96763.77;1795684;80;21537;-67
2022/01/14 04:23:48;;;;;;;39.77;18.10;;;;;;;-5.26;76.90;96757.35;1795454;80;21046;-67
2022/01/14 04:26:18;;;;;;;37.43;17.60;;;;;;;-5.16;77.07;96752.77;1795251;80;21003;-67
2022/01/14 04:28:46;;;;;;;37.13;16.13;;;;;;;-5.05;77.08;96747.45;1795577;80;21524;-67
2022/01/14 04:31:12;;;;;;;37.17;16.23;;;;;;;-4.96;76.49;96747.13;1795494;80;21537;-67
2022/01/14 04:33:42;;;;;;;37.60;16.47;;;;;;;-4.91;76.81;96732.84;1795728;80;20986;-67
2022/01/14 04:36:09;;;;;;;40.90;17.30;;;;;;;-4.89;75.98;96732.53;1795138;80;21524;-67
2022/01/14 04:38:35;;;;;;;36.43;16.67;;;;;;;-4.95;75.86;96727.41;1795335;80;21018;-67
2022/01/14 04:41:04;;;;;;;34.40;14.53;;;;;;;-4.91;76.05;96721.66;1795275;80;21086;-67
2022/01/14 04:43:32;;;;;;;27.73;14.07;;;;;;;-4.98;75.73;96719.11;1795545;80;21002;-67
2022/01/14 04:48:27;;;;;;;32.63;14.57;;;;;;;-4.93;76.13;96705.23;1795416;80;21038;-67
2022/01/14 04:50:55;;;;;;;39.20;16.77;;;;;;;-4.86;76.32;96688.06;1792838;80;21075;-67
2022/01/14 04:53:22;;;;;;;30.63;14.50;;;;;;;-4.82;75.81;96682.27;1787056;80;21003;-67
2022/01/14 04:55:51;;;;;;;42.13;17.77;;;;;;;-4.80;75.67;96680.67;1787209;80;21026;-67
2022/01/14 04:58:18;;;;;;;44.03;19.60;;;;;;;-4.77;75.39;96665.40;1787021;80;20982;-67
2022/01/14 05:00:45;;;;;;;55.53;25.10;;;;;;;-4.82;74.72;96656.52;1787163;80;21540;-67
2022/01/14 05:03:14;;;;;;;42.17;20.67;;;;;;;-4.92;74.81;96660.66;1786856;80;21027;-67
2022/01/14 05:05:44;;;;;;;41.73;19.30;;;;;;;-4.96;75.48;96666.42;1786739;80;21019;-68
2022/01/14 05:08:20;;;;;;;40.17;17.17;;;;;;;-4.98;76.11;96657.34;1786733;80;21066;-67
2022/01/14 05:13:15;;;;;;;33.27;14.57;;;;;;;-4.85;76.37;96648.63;1787045;80;21493;-67
2022/01/14 05:15:42;;;;;;;39.10;16.07;;;;;;;-4.77;75.78;96653.81;1787307;80;21050;-67
2022/01/14 05:18:09;;;;;;;32.93;14.03;;;;;;;-4.71;75.90;96655.84;1787249;80;20978;-67
2022/01/14 05:20:35;;;;;;;27.47;13.10;;;;;;;-4.63;75.92;96659.77;1787010;80;21584;-67
2022/01/14 05:23:03;;;;;;;30.20;13.40;;;;;;;-4.57;75.55;96661.38;1787216;80;21038;-67
2022/01/14 05:25:30;;;;;;;29.37;13.10;;;;;;;-4.52;75.46;96660.36;1787125;80;20999;-67
2022/01/14 05:27:56;;;;;;;35.53;14.83;;;;;;;-4.44;75.33;96654.81;1787027;80;21086;-67
2022/01/14 05:30:23;;;;;;;28.47;13.70;;;;;;;-4.41;74.60;96660.16;1786829;80;21544;-67
2022/01/14 05:32:53;;;;;;;29.37;14.10;;;;;;;-4.26;74.78;96665.66;1786854;80;21082;-67
2022/01/14 05:35:23;;;;;;;40.67;20.97;;;;;;;-4.21;74.46;96662.93;1786930;80;21046;-67
2022/01/14 05:37:50;;;;;;;35.57;17.83;;;;;;;-4.14;74.63;96656.03;1787118;80;20994;-67
2022/01/14 05:40:19;;;;;;;42.33;18.00;;;;;;;-4.22;74.08;96649.16;1786767;80;21087;-67
2022/01/14 05:42:47;;;;;;;30.33;16.57;;;;;;;-4.33;73.80;96641.27;1787209;80;21002;-67
2022/01/14 05:45:16;;;;;;;36.13;15.50;;;;;;;-4.41;74.05;96634.78;1787249;80;20999;-67
2022/01/14 05:47:44;;;;;;;50.17;22.47;;;;;;;-4.51;74.16;96626.97;1787008;80;21042;-67
2022/01/14 05:50:15;;;;;;;54.80;22.30;;;;;;;-4.50;75.09;96630.02;1786987;80;21023;-67
2022/01/14 05:52:44;;;;;;;49.63;23.20;;;;;;;-4.44;75.34;96644.92;1794687;80;21054;-67
2022/01/14 05:55:16;;;;;;;37.03;18.13;;;;;;;-4.35;75.30;96642.45;1795356;80;21049;-67
2022/01/14 05:57:43;;;;;;;40.43;18.60;;;;;;;-4.39;75.31;96621.18;1795371;80;20987;-67
2022/01/14 06:00:17;;;;;;;65.03;25.40;;;;;;;-4.31;75.55;96617.73;1795408;80;21484;-67
2022/01/14 06:02:46;;;;;;;65.57;26.70;;;;;;;-4.28;74.58;96618.30;1795425;80;21045;-67
2022/01/14 06:05:12;;;;;;;70.10;29.13;;;;;;;-4.27;74.77;96626.13;1795310;80;21576;-67
2022/01/14 06:07:39;;;;;;;55.83;22.53;;;;;;;-4.24;74.59;96628.86;1795185;80;21094;-67
2022/01/14 06:10:07;;;;;;;39.87;18.83;;;;;;;-4.22;74.32;96628.96;1795431;80;21516;-68
2022/01/14 06:12:34;;;;;;;35.83;18.20;;;;;;;-4.24;73.64;96629.27;1795609;80;21552;-67
2022/01/14 06:15:05;;;;;;;44.80;20.63;;;;;;;-4.40;73.29;96622.41;1795643;80;20994;-67
2022/01/14 06:17:31;;;;;;;69.67;31.00;;;;;;;-4.56;73.82;96623.25;1795331;80;21537;-67
2022/01/14 06:19:58;;;;;;;136.43;51.43;;;;;;;-4.54;74.65;96615.59;1795237;80;20991;-67
2022/01/14 06:22:25;;;;;;;90.60;35.80;;;;;;;-4.57;74.97;96614.61;1795146;80;20995;-67
2022/01/14 06:24:51;;;;;;;83.80;36.57;;;;;;;-4.68;75.04;96613.55;1795134;80;21006;-67
2022/01/14 06:27:18;;;;;;;102.83;42.60;;;;;;;-4.73;75.26;96608.55;1795114;80;21073;-67
2022/01/14 06:29:45;;;;;;;75.20;35.37;;;;;;;-4.66;76.04;96606.77;1795427;80;21512;-67
2022/01/14 06:32:11;;;;;;;42.57;20.50;;;;;;;-4.60;76.30;96601.98;1795502;80;20998;-67
2022/01/14 06:34:38;;;;;;;43.00;19.83;;;;;;;-4.59;76.27;96603.37;1795107;80;21528;-68
2022/01/14 06:37:05;;;;;;;32.93;14.87;;;;;;;-4.55;76.18;96609.97;1795338;80;21082;-67
2022/01/14 06:39:32;;;;;;;35.50;15.43;;;;;;;-4.51;76.21;96606.74;1795135;80;21062;-67
2022/01/14 06:42:00;;;;;;;25.47;13.43;;;;;;;-4.37;76.45;96591.65;1795667;80;21038;-67
2022/01/14 06:44:26;;;;;;;30.30;14.20;;;;;;;-4.23;76.17;96597.16;1794640;80;20932;-67
2022/01/14 06:46:57;;;;;;;31.23;13.50;;;;;;;-4.14;76.00;96588.61;1795141;80;21082;-67
2022/01/14 06:49:25;;;;;;;27.77;13.03;;;;;;;-4.00;75.68;96601.37;1794912;80;20975;-67
2022/01/14 06:51:55;;;;;;;28.50;13.37;;;;;;;-3.99;74.92;96605.30;1791196;80;21074;-67
2022/01/14 06:54:24;;;;;;;45.73;18.37;;;;;;;-4.03;75.11;96597.31;1787147;80;21007;-67
2022/01/14 06:56:50;;;;;;;38.93;18.57;;;;;;;-4.00;75.53;96592.34;1787174;80;21453;-67
2022/01/14 06:59:17;;;;;;;39.87;19.57;;;;;;;-3.95;75.39;96599.52;1786644;80;21137;-67
2022/01/14 07:01:43;;;;;;;48.00;22.90;;;;;;;-3.92;75.47;96607.81;1787132;80;21006;-67
2022/01/14 07:04:11;;;;;;;51.07;22.70;;;;;;;-3.98;75.76;96603.60;1787047;80;20994;-67
2022/01/14 07:06:38;;;;;;;52.77;25.30;;;;;;;-3.93;75.92;96592.75;1786749;80;21027;-67
2022/01/14 07:09:04;;;;;;;43.30;20.67;;;;;;;-3.82;75.46;96582.99;1786849;80;21034;-67
2022/01/14 07:11:36;;;;;;;53.10;24.00;;;;;;;-3.72;75.39;96587.82;1786927;80;21114;-67
2022/01/14 07:14:04;;;;;;;41.97;21.00;;;;;;;-3.75;75.20;96582.92;1786337;80;21083;-67
2022/01/14 07:16:33;;;;;;;43.97;20.30;;;;;;;-3.67;75.63;96584.20;1787079;80;21077;-67
2022/01/14 07:19:02;;;;;;;43.37;19.30;;;;;;;-3.58;75.40;96576.94;1786967;80;21038;-67
2022/01/14 07:21:29;;;;;;;42.60;21.33;;;;;;;-3.49;74.97;96572.23;1786952;80;20943;-67
2022/01/14 07:23:56;;;;;;;49.60;20.73;;;;;;;-3.39;75.20;96566.25;1786739;80;21142;-67
2022/01/14 07:26:22;;;;;;;46.97;22.03;;;;;;;-3.25;75.16;96556.23;1787082;80;21003;-67
2022/01/14 07:28:48;;;;;;;45.13;21.73;;;;;;;-3.13;74.94;96555.52;1786712;80;21042;-67
2022/01/14 07:31:15;;;;;;;44.67;20.97;;;;;;;-2.99;74.75;96547.17;1786803;80;21095;-67
2022/01/14 07:33:43;;;;;;;46.53;21.67;;;;;;;-2.97;73.49;96542.06;1787006;80;21014;-67
2022/01/14 07:36:10;;;;;;;48.03;22.77;;;;;;;-3.05;72.99;96548.14;1786873;80;20983;-67
2022/01/14 07:38:37;;;;;;;49.90;21.93;;;;;;;-3.08;73.46;96547.59;1786795;80;21026;-67
2022/01/14 07:41:04;;;;;;;51.00;22.30;;;;;;;-3.07;73.28;96548.50;1786884;80;21007;-67
2022/01/14 07:43:30;;;;;;;44.70;21.93;;;;;;;-3.13;73.46;96541.31;1787005;80;20998;-67
2022/01/14 07:46:00;;;;;;;49.90;22.50;;;;;;;-3.13;73.26;96530.11;1787128;80;21516;-67
2022/01/14 07:48:26;;;;;;;44.97;20.97;;;;;;;-3.17;73.64;96530.80;1787041;80;20972;-67
2022/01/14 07:50:53;;;;;;;50.00;23.40;;;;;;;-3.02;74.15;96519.01;1786859;80;21055;-67
2022/01/14 07:53:20;;;;;;;50.23;23.27;;;;;;;-3.05;73.30;96522.33;1787045;80;21054;-67
2022/01/14 07:55:48;;;;;;;49.00;21.17;;;;;;;-3.07;73.34;96533.89;1786613;80;21007;-67
2022/01/14 07:58:15;;;;;;;45.47;20.73;;;;;;;-2.93;74.03;96529.79;1787215;80;21009;-67
2022/01/14 08:00:44;;;;;;;43.57;19.30;;;;;;;-2.79;73.65;96516.27;1787011;80;21014;-67
2022/01/14 08:03:11;;;;;;;36.47;17.70;;;;;;;-2.81;72.40;96511.01;1786446;80;21058;-67
2022/01/14 08:05:37;;;;;;;36.30;18.03;;;;;;;-2.90;72.50;96517.93;1787022;80;20987;-67
2022/01/14 08:08:07;;;;;;;45.20;23.77;;;;;;;-2.87;72.87;96517.19;1786982;80;20991;-67
2022/01/14 08:10:36;;;;;;;51.63;25.63;;;;;;;-2.72;73.16;96517.00;1787028;80;21075;-67
2022/01/14 08:13:05;;;;;;;56.03;26.97;;;;;;;-2.54;73.04;96511.42;1786967;80;21079;-67
2022/01/14 08:15:32;;;;;;;39.53;21.20;;;;;;;-2.35;72.63;96504.50;1786606;80;21094;-67
2022/01/14 08:18:01;;;;;;;49.37;25.90;;;;;;;-2.36;71.57;96500.16;1787118;80;21018;-67
2022/01/14 08:20:28;;;;;;;56.27;27.80;;;;;;;-2.51;71.23;96503.80;1787023;80;21022;-67
2022/01/14 08:22:55;;;;;;;49.67;22.57;;;;;;;-2.51;71.51;96508.09;1787046;80;21011;-67
2022/01/14 08:25:22;;;;;;;42.47;21.03;;;;;;;-2.42;72.31;96508.11;1787254;80;20998;-67
2022/01/14 08:27:52;;;;;;;50.17;22.33;;;;;;;-2.28;71.99;96510.02;1787354;80;20963;-67
2022/01/14 08:30:18;;;;;;;48.27;23.63;;;;;;;-2.26;72.05;96510.98;1787054;80;21492;-67
2022/01/14 08:32:47;;;;;;;44.10;20.17;;;;;;;-2.14;71.63;96517.13;1787139;80;21110;-67
2022/01/14 08:35:13;;;;;;;40.80;19.87;;;;;;;-2.03;71.20;96517.59;1786501;80;21015;-68
2022/01/14 08:37:40;;;;;;;41.50;19.40;;;;;;;-2.01;70.54;96518.13;1787160;80;20967;-67
2022/01/14 08:40:10;;;;;;;49.80;22.87;;;;;;;-2.02;70.46;96527.98;1786889;80;21098;-67
2022/01/14 08:42:38;;;;;;;46.40;19.90;;;;;;;-2.01;70.93;96527.19;1787213;80;21477;-67
2022/01/14 08:45:10;;;;;;;41.30;19.57;;;;;;;-1.91;70.94;96525.02;1787272;80;21549;-67
2022/01/14 08:47:37;;;;;;;50.00;23.37;;;;;;;-2.11;70.63;96519.84;1787295;80;20987;-67
2022/01/14 08:50:05;;;;;;;44.30;22.33;;;;;;;-2.07;71.14;96528.59;1786881;80;21102;-67
2022/01/14 08:52:32;;;;;;;64.97;28.83;;;;;;;-1.92;71.98;96527.98;1787071;80;21023;-67
2022/01/14 08:55:01;;;;;;;117.80;46.03;;;;;;;-1.82;71.13;96525.40;1787493;80;21006;-67
2022/01/14 08:57:28;;;;;;;132.07;51.67;;;;;;;-1.83;70.74;96509.00;1786988;80;21026;-67
2022/01/14 08:59:54;;;;;;;133.97;56.43;;;;;;;-1.84;71.01;96507.25;1787311;80;20995;-68
2022/01/14 09:02:21;;;;;;;237.33;85.90;;;;;;;-1.70;71.83;96501.36;1787086;80;21018;-67
2022/01/14 09:04:48;;;;;;;73.30;35.00;;;;;;;-1.53;71.27;96502.09;1787022;80;21054;-67
2022/01/14 09:07:16;;;;;;;59.47;29.83;;;;;;;-1.43;70.78;96480.06;1787110;80;20995;-67
2022/01/14 09:09:45;;;;;;;46.50;23.03;;;;;;;-1.29;71.15;96472.44;1787538;80;21006;-67
2022/01/14 09:12:15;;;;;;;48.70;27.47;;;;;;;-1.23;70.31;96469.24;1786784;80;20983;-67
2022/01/14 09:14:41;;;;;;;65.03;32.10;;;;;;;-1.13;70.18;96462.31;1786540;80;21012;-68
2022/01/14 09:17:08;;;;;;;86.87;52.93;;;;;;;-1.09;70.22;96458.59;1786194;80;21106;-68
2022/01/14 09:19:35;;;;;;;73.97;45.03;;;;;;;-1.09;70.21;96454.70;1787005;80;21073;-68
2022/01/14 09:22:02;;;;;;;61.90;31.27;;;;;;;-1.03;69.84;96457.97;1787084;80;21011;-67
2022/01/14 09:24:28;;;;;;;86.23;56.03;;;;;;;-1.00;70.04;96447.72;1787121;80;20979;-68
2022/01/14 09:26:55;;;;;;;54.67;31.20;;;;;;;-1.09;68.94;96448.23;1787253;80;20951;-68
2022/01/14 09:29:21;;;;;;;55.00;26.70;;;;;;;-1.01;69.35;96445.06;1787049;80;21034;-68
2022/01/14 09:31:48;;;;;;;52.73;23.97;;;;;;;-0.99;69.40;96439.12;1787227;80;21061;-67
2022/01/14 09:34:14;;;;;;;51.73;25.93;;;;;;;-0.98;69.26;96427.08;1787233;80;20963;-68
2022/01/14 09:36:41;;;;;;;50.47;24.97;;;;;;;-0.83;69.61;96409.91;1787111;80;20987;-68
2022/01/14 09:39:08;;;;;;;52.80;25.47;;;;;;;-0.72;69.32;96403.45;1787091;80;21054;-68
2022/01/14 09:41:35;;;;;;;48.67;24.23;;;;;;;-0.50;69.38;96396.07;1787046;80;21015;-68
2022/01/14 09:44:06;;;;;;;48.53;23.97;;;;;;;-0.40;68.58;96398.55;1787118;80;21030;-67
2022/01/14 09:46:33;;;;;;;55.80;25.27;;;;;;;-0.42;67.65;96393.34;1787126;80;21504;-67
2022/01/14 09:49:01;;;;;;;51.40;25.13;;;;;;;-0.28;67.86;96393.81;1787208;80;21018;-68
2022/01/14 09:51:27;;;;;;;51.60;24.90;;;;;;;-0.33;67.63;96383.30;1786252;80;21014;-67
2022/01/14 09:53:54;;;;;;;50.10;24.00;;;;;;;-0.32;67.89;96377.28;1787047;80;20995;-67
2022/01/14 09:56:25;;;;;;;61.87;33.57;;;;;;;-0.24;68.07;96371.06;1787319;80;20983;-67
2022/01/14 09:58:52;;;;;;;112.17;66.20;;;;;;;-0.06;68.01;96363.05;1787083;80;21023;-68
2022/01/14 10:01:24;;;;;;;58.50;29.73;;;;;;;0.13;68.07;96365.45;1786829;80;21077;-68
2022/01/14 10:03:55;;;;;;;57.63;30.00;;;;;;;0.28;67.01;96364.17;1787298;80;21046;-67
2022/01/14 10:06:49;;;;;;;80.13;49.20;;;;;;;0.37;66.34;96354.11;1786893;80;21066;-67
2022/01/14 10:09:23;;;;;;;66.13;38.50;;;;;;;0.35;66.26;96349.27;1787084;80;21513;-67
2022/01/14 10:12:05;;;;;;;48.73;26.23;;;;;;;0.36;65.75;96340.67;1787140;80;20951;-68
2022/01/14 10:14:36;;;;;;;51.73;24.80;;;;;;;0.21;65.65;96336.73;1786850;80;21521;-68
2022/01/14 10:17:08;;;;;;;55.17;26.53;;;;;;;0.05;66.16;96334.86;1787162;80;20998;-68
2022/01/14 10:19:44;;;;;;;52.10;26.17;;;;;;;0.04;66.69;96330.52;1787185;80;21017;-68
2022/01/14 10:22:27;;;;;;;48.23;24.13;;;;;;;-0.03;66.25;96319.91;1786849;80;21457;-68
2022/01/14 10:25:05;;;;;;;52.05;24.90;;;;;;;-0.24;66.55;96317.48;1787087;80;21019;-67
2022/01/14 10:27:50;;;;;;;50.60;25.20;;;;;;;-0.28;67.37;96318.23;1787286;80;20963;-67
2022/01/14 10:30:31;;;;;;;50.60;24.43;;;;;;;0.10;67.75;96304.37;1786906;80;21099;-67
2022/01/14 10:33:07;;;;;;;46.87;24.63;;;;;;;0.88;67.94;96293.36;1787528;80;21011;-68
2022/01/14 10:35:46;;;;;;;42.63;21.87;;;;;;;1.45;65.59;96290.69;1786809;80;21010;-67
2022/01/14 10:38:22;;;;;;;45.33;22.37;;;;;;;1.39;63.91;96296.60;1787005;80;21010;-68
2022/01/14 10:40:54;;;;;;;49.90;25.37;;;;;;;1.36;63.44;96299.13;1787158;80;21078;-67
2022/01/14 10:43:25;;;;;;;53.57;26.57;;;;;;;1.35;63.31;96285.64;1786760;80;21022;-69
2022/01/14 10:45:53;;;;;;;54.00;27.77;;;;;;;1.38;63.42;96280.52;1785239;80;20979;-68
2022/01/14 10:48:33;;;;;;;47.23;25.17;;;;;;;1.43;63.42;96278.05;1787098;80;21105;-67
2022/01/14 10:51:07;;;;;;;48.70;25.73;;;;;;;1.38;63.64;96280.52;1787040;80;21580;-68
2022/01/14 10:53:40;;;;;;;47.70;26.03;;;;;;;2.11;63.64;96269.86;1786795;80;21018;-68
2022/01/14 10:56:13;;;;;;;;;;;;;;;2.55;61.26;96265.28;1789718;80;21540;-67
2022/01/14 10:58:43;;;;;;;38.42;20.50;;;;;;;2.69;61.17;96261.24;1756126;81;20435;-68
2022/01/14 11:01:15;;;;;;;46.33;25.67;;;;;;;2.77;59.84;96255.80;1732380;83;20946;-68
2022/01/14 11:04:00;;;;;;;48.10;23.77;;;;;;;3.03;59.31;96252.45;1787398;80;21006;-67
2022/01/14 11:06:33;;;;;;;40.60;22.80;;;;;;;3.07;59.45;96244.25;1785784;80;21005;-65
2022/01/14 11:09:18;;;;;;;44.80;22.97;;;;;;;3.08;58.10;96257.76;1787314;80;21582;-65
2022/01/14 11:11:48;;;;;;;42.13;23.87;;;;;;;2.80;58.99;96251.95;1787644;80;21471;-68
2022/01/14 11:14:18;;;;;;;42.13;22.40;;;;;;;2.49;59.89;96243.86;1787701;80;21594;-67
2022/01/14 11:16:46;;;;;;;38.63;22.10;;;;;;;2.27;60.38;96246.80;1787622;80;21009;-67
2022/01/14 11:19:14;;;;;;;40.13;21.57;;;;;;;2.05;61.34;96237.19;1787716;80;21059;-67
2022/01/14 11:24:34;;;;;;;42.83;22.87;;;;;;;1.68;63.06;96245.35;1787246;80;21033;-67
2022/01/14 11:27:10;;;;;;;34.60;18.60;;;;;;;1.64;63.22;96244.83;1787688;80;21001;-67
2022/01/14 11:29:45;;;;;;;42.93;21.30;;;;;;;1.40;64.15;96237.24;1787552;80;21021;-67
2022/01/14 11:32:12;;;;;;;40.50;21.73;;;;;;;1.34;64.81;96225.81;1786751;80;21005;-67
2022/01/14 11:34:42;;;;;;;43.93;23.40;;;;;;;1.26;65.39;96224.28;1787664;80;21061;-67
2022/01/14 11:37:13;;;;;;;48.13;25.30;;;;;;;1.23;65.26;96215.98;1787453;80;21018;-67
2022/01/14 11:39:58;;;;;;;50.63;26.23;;;;;;;1.16;65.58;96208.88;1787618;80;20985;-67
2022/01/14 11:42:50;;;;;;;46.30;23.70;;;;;;;1.11;65.78;96200.47;1787733;80;21048;-67
2022/01/14 11:45:28;;;;;;;42.57;21.97;;;;;;;1.10;66.11;96190.92;1765651;80;21061;-67
2022/01/14 11:48:00;;;;;;;46.77;24.13;;;;;;;1.01;66.84;96196.77;1778180;80;21014;-67
2022/01/14 11:50:32;;;;;;;52.23;29.77;;;;;;;0.89;67.05;96200.31;1781808;80;21026;-67
2022/01/14 11:52:59;;;;;;;50.33;25.83;;;;;;;0.75;67.32;96205.97;1787611;80;21077;-67
2022/01/14 11:55:35;;;;;;;47.33;26.17;;;;;;;0.67;67.54;96197.08;1787730;80;20986;-67
2022/01/14 11:58:10;;;;;;;47.03;27.40;;;;;;;0.58;67.58;96195.50;1787519;80;21036;-67